sensor_id;sensor_type;location;lat;lon;timestamp;P1;durP1;ratioP1;P2;durP2;ratioP2
37645;SDS011;23489;49.600;6.138;2024-02-21T00:00:54;13.82;;;5.47;;
37645;SDS011;23489;49.600;6.138;2024-02-21T00:03:20;11.50;;;5.45;;
37645;SDS011;23489;49.600;6.138;2024-02-21T00:05:46;18.63;;;6.28;;
37645;SDS011;23489;49.600;6.138;2024-02-21T00:08:11;11.75;;;5.38;;
37645;SDS011;23489;49.600;6.138;2024-02-21T00:10:37;14.43;;;6.20;;
37645;SDS011;23489;49.600;6.138;2024-02-21T00:13:03;14.43;;;6.18;;
37645;SDS011;23489;49.600;6.138;2024-02-21T00:15:29;13.25;;;6.07;;
37645;SDS011;23489;49.600;6.138;2024-02-21T00:17:54;16.90;;;5.75;;
37645;SDS011;23489;49.600;6.138;2024-02-21T00:20:20;11.77;;;5.18;;
37645;SDS011;23489;49.600;6.138;2024-02-21T00:22:46;14.50;;;5.05;;
37645;SDS011;23489;49.600;6.138;2024-02-21T00:25:11;11.32;;;6.15;;
37645;SDS011;23489;49.600;6.138;2024-02-21T00:27:37;11.80;;;5.55;;
37645;SDS011;23489;49.600;6.138;2024-02-21T00:30:04;11.07;;;6.68;;
37645;SDS011;23489;49.600;6.138;2024-02-21T00:32:30;12.60;;;5.82;;
37645;SDS011;23489;49.600;6.138;2024-02-21T00:34:57;18.30;;;6.00;;
37645;SDS011;23489;49.600;6.138;2024-02-21T00:37:23;12.77;;;5.68;;
37645;SDS011;23489;49.600;6.138;2024-02-21T00:39:48;15.45;;;5.90;;
37645;SDS011;23489;49.600;6.138;2024-02-21T00:42:14;17.02;;;5.65;;
37645;SDS011;23489;49.600;6.138;2024-02-21T00:44:39;10.55;;;5.70;;
37645;SDS011;23489;49.600;6.138;2024-02-21T00:47:05;14.48;;;5.65;;
37645;SDS011;23489;49.600;6.138;2024-02-21T00:49:31;14.45;;;5.60;;
37645;SDS011;23489;49.600;6.138;2024-02-21T00:51:56;19.30;;;6.53;;
37645;SDS011;23489;49.600;6.138;2024-02-21T00:54:22;12.15;;;5.63;;
37645;SDS011;23489;49.600;6.138;2024-02-21T00:56:48;21.65;;;6.45;;
37645;SDS011;23489;49.600;6.138;2024-02-21T00:59:13;14.57;;;6.47;;
37645;SDS011;23489;49.600;6.138;2024-02-21T01:01:39;14.77;;;6.38;;
37645;SDS011;23489;49.600;6.138;2024-02-21T01:04:08;17.10;;;6.00;;
37645;SDS011;23489;49.600;6.138;2024-02-21T01:06:34;12.38;;;5.97;;
37645;SDS011;23489;49.600;6.138;2024-02-21T01:09:00;12.30;;;5.90;;
37645;SDS011;23489;49.600;6.138;2024-02-21T01:11:26;15.52;;;6.88;;
37645;SDS011;23489;49.600;6.138;2024-02-21T01:13:52;10.15;;;5.43;;
37645;SDS011;23489;49.600;6.138;2024-02-21T01:16:20;10.65;;;5.40;;
37645;SDS011;23489;49.600;6.138;2024-02-21T01:18:45;17.67;;;6.18;;
37645;SDS011;23489;49.600;6.138;2024-02-21T01:21:11;15.23;;;5.80;;
37645;SDS011;23489;49.600;6.138;2024-02-21T01:23:37;12.15;;;5.38;;
37645;SDS011;23489;49.600;6.138;2024-02-21T01:43:03;13.95;;;5.30;;
37645;SDS011;23489;49.600;6.138;2024-02-21T01:45:39;15.38;;;6.90;;
37645;SDS011;23489;49.600;6.138;2024-02-21T01:48:05;15.60;;;5.97;;
37645;SDS011;23489;49.600;6.138;2024-02-21T01:50:32;14.73;;;5.65;;
37645;SDS011;23489;49.600;6.138;2024-02-21T02:05:07;10.65;;;3.97;;
37645;SDS011;23489;49.600;6.138;2024-02-21T02:07:34;12.02;;;4.57;;
37645;SDS011;23489;49.600;6.138;2024-02-21T02:10:00;10.30;;;4.90;;
37645;SDS011;23489;49.600;6.138;2024-02-21T02:12:25;9.63;;;5.13;;
37645;SDS011;23489;49.600;6.138;2024-02-21T02:15:01;12.68;;;5.03;;
37645;SDS011;23489;49.600;6.138;2024-02-21T02:17:31;11.93;;;4.90;;
37645;SDS011;23489;49.600;6.138;2024-02-21T02:34:32;11.27;;;4.78;;
37645;SDS011;23489;49.600;6.138;2024-02-21T02:36:57;14.05;;;4.70;;
37645;SDS011;23489;49.600;6.138;2024-02-21T02:39:23;11.18;;;4.20;;
37645;SDS011;23489;49.600;6.138;2024-02-21T02:41:48;13.98;;;5.15;;
37645;SDS011;23489;49.600;6.138;2024-02-21T03:01:14;10.38;;;4.65;;
37645;SDS011;23489;49.600;6.138;2024-02-21T03:03:40;14.43;;;5.45;;
37645;SDS011;23489;49.600;6.138;2024-02-21T03:06:05;16.88;;;6.00;;
37645;SDS011;23489;49.600;6.138;2024-02-21T03:08:31;14.80;;;6.32;;
37645;SDS011;23489;49.600;6.138;2024-02-21T03:10:58;16.10;;;6.45;;
37645;SDS011;23489;49.600;6.138;2024-02-21T03:13:24;12.27;;;5.78;;
37645;SDS011;23489;49.600;6.138;2024-02-21T03:15:50;10.98;;;5.82;;
37645;SDS011;23489;49.600;6.138;2024-02-21T03:47:27;13.43;;;5.63;;
37645;SDS011;23489;49.600;6.138;2024-02-21T03:49:52;11.95;;;5.22;;
37645;SDS011;23489;49.600;6.138;2024-02-21T03:52:18;11.52;;;5.53;;
37645;SDS011;23489;49.600;6.138;2024-02-21T03:54:44;11.90;;;4.97;;
37645;SDS011;23489;49.600;6.138;2024-02-21T03:57:10;17.65;;;5.57;;
37645;SDS011;23489;49.600;6.138;2024-02-21T03:59:36;7.43;;;4.30;;
37645;SDS011;23489;49.600;6.138;2024-02-21T04:02:04;10.77;;;5.35;;
37645;SDS011;23489;49.600;6.138;2024-02-21T04:04:33;16.48;;;5.50;;
37645;SDS011;23489;49.600;6.138;2024-02-21T04:07:00;10.30;;;5.25;;
37645;SDS011;23489;49.600;6.138;2024-02-21T04:09:26;13.30;;;5.90;;
37645;SDS011;23489;49.600;6.138;2024-02-21T04:11:51;10.32;;;5.22;;
37645;SDS011;23489;49.600;6.138;2024-02-21T04:14:17;15.68;;;5.03;;
37645;SDS011;23489;49.600;6.138;2024-02-21T04:16:43;13.98;;;5.53;;
37645;SDS011;23489;49.600;6.138;2024-02-21T04:19:08;17.27;;;4.95;;
37645;SDS011;23489;49.600;6.138;2024-02-21T04:21:34;10.88;;;5.10;;
37645;SDS011;23489;49.600;6.138;2024-02-21T04:24:00;11.90;;;5.00;;
37645;SDS011;23489;49.600;6.138;2024-02-21T04:26:27;13.60;;;5.75;;
37645;SDS011;23489;49.600;6.138;2024-02-21T04:28:52;11.60;;;6.07;;
37645;SDS011;23489;49.600;6.138;2024-02-21T04:31:18;16.38;;;6.05;;
37645;SDS011;23489;49.600;6.138;2024-02-21T04:33:44;12.93;;;5.97;;
37645;SDS011;23489;49.600;6.138;2024-02-21T04:50:44;11.43;;;4.93;;
37645;SDS011;23489;49.600;6.138;2024-02-21T04:53:10;15.20;;;5.50;;
37645;SDS011;23489;49.600;6.138;2024-02-21T04:55:35;16.02;;;5.60;;
37645;SDS011;23489;49.600;6.138;2024-02-21T04:58:01;20.58;;;5.03;;
37645;SDS011;23489;49.600;6.138;2024-02-21T05:00:27;13.50;;;5.40;;
37645;SDS011;23489;49.600;6.138;2024-02-21T05:02:53;14.18;;;5.05;;
37645;SDS011;23489;49.600;6.138;2024-02-21T05:05:18;19.38;;;5.43;;
37645;SDS011;23489;49.600;6.138;2024-02-21T05:07:44;15.25;;;5.32;;
37645;SDS011;23489;49.600;6.138;2024-02-21T05:10:10;16.33;;;5.95;;
37645;SDS011;23489;49.600;6.138;2024-02-21T05:12:36;11.77;;;5.57;;
37645;SDS011;23489;49.600;6.138;2024-02-21T05:15:02;17.38;;;6.57;;
37645;SDS011;23489;49.600;6.138;2024-02-21T05:17:28;11.30;;;5.80;;
37645;SDS011;23489;49.600;6.138;2024-02-21T05:19:54;12.57;;;5.03;;
37645;SDS011;23489;49.600;6.138;2024-02-21T05:22:19;15.10;;;5.75;;
37645;SDS011;23489;49.600;6.138;2024-02-21T05:24:45;12.82;;;4.97;;
37645;SDS011;23489;49.600;6.138;2024-02-21T05:27:11;15.13;;;6.30;;
37645;SDS011;23489;49.600;6.138;2024-02-21T05:29:36;10.93;;;5.55;;
37645;SDS011;23489;49.600;6.138;2024-02-21T05:32:02;15.70;;;6.40;;
37645;SDS011;23489;49.600;6.138;2024-02-21T05:34:28;17.13;;;5.97;;
37645;SDS011;23489;49.600;6.138;2024-02-21T05:36:54;18.15;;;6.10;;
37645;SDS011;23489;49.600;6.138;2024-02-21T05:39:20;12.55;;;6.07;;
37645;SDS011;23489;49.600;6.138;2024-02-21T05:41:48;14.60;;;6.10;;
37645;SDS011;23489;49.600;6.138;2024-02-21T05:44:14;13.48;;;6.22;;
37645;SDS011;23489;49.600;6.138;2024-02-21T05:46:40;13.88;;;6.43;;
37645;SDS011;23489;49.600;6.138;2024-02-21T05:49:06;13.70;;;6.57;;
37645;SDS011;23489;49.600;6.138;2024-02-21T05:51:32;12.40;;;5.50;;
37645;SDS011;23489;49.600;6.138;2024-02-21T05:53:58;10.52;;;5.40;;
37645;SDS011;23489;49.600;6.138;2024-02-21T05:56:24;16.42;;;6.32;;
37645;SDS011;23489;49.600;6.138;2024-02-21T05:58:50;11.63;;;6.07;;
37645;SDS011;23489;49.600;6.138;2024-02-21T06:01:15;14.15;;;6.30;;
37645;SDS011;23489;49.600;6.138;2024-02-21T06:03:42;17.67;;;5.55;;
37645;SDS011;23489;49.600;6.138;2024-02-21T06:06:08;13.15;;;5.40;;
37645;SDS011;23489;49.600;6.138;2024-02-21T06:08:34;12.50;;;5.90;;
37645;SDS011;23489;49.600;6.138;2024-02-21T06:11:00;11.43;;;5.30;;
37645;SDS011;23489;49.600;6.138;2024-02-21T06:13:25;13.73;;;5.88;;
37645;SDS011;23489;49.600;6.138;2024-02-21T06:15:51;9.73;;;5.15;;
37645;SDS011;23489;49.600;6.138;2024-02-21T06:18:17;13.40;;;5.72;;
37645;SDS011;23489;49.600;6.138;2024-02-21T06:20:43;15.50;;;5.68;;
37645;SDS011;23489;49.600;6.138;2024-02-21T06:23:11;10.43;;;5.68;;
37645;SDS011;23489;49.600;6.138;2024-02-21T06:25:37;9.55;;;5.63;;
37645;SDS011;23489;49.600;6.138;2024-02-21T06:28:03;16.80;;;5.97;;
37645;SDS011;23489;49.600;6.138;2024-02-21T06:30:29;10.90;;;5.78;;
37645;SDS011;23489;49.600;6.138;2024-02-21T06:32:55;14.80;;;6.10;;
37645;SDS011;23489;49.600;6.138;2024-02-21T06:35:21;12.57;;;5.60;;
37645;SDS011;23489;49.600;6.138;2024-02-21T06:37:49;10.10;;;5.22;;
37645;SDS011;23489;49.600;6.138;2024-02-21T06:40:22;12.20;;;5.20;;
37645;SDS011;23489;49.600;6.138;2024-02-21T06:42:49;11.45;;;5.38;;
37645;SDS011;23489;49.600;6.138;2024-02-21T06:45:15;12.65;;;5.45;;
37645;SDS011;23489;49.600;6.138;2024-02-21T06:47:41;9.60;;;5.40;;
37645;SDS011;23489;49.600;6.138;2024-02-21T06:50:07;13.73;;;5.25;;
37645;SDS011;23489;49.600;6.138;2024-02-21T06:52:36;13.30;;;5.55;;
37645;SDS011;23489;49.600;6.138;2024-02-21T06:55:02;10.82;;;5.72;;
37645;SDS011;23489;49.600;6.138;2024-02-21T06:57:28;12.77;;;5.10;;
37645;SDS011;23489;49.600;6.138;2024-02-21T06:59:54;12.73;;;5.55;;
37645;SDS011;23489;49.600;6.138;2024-02-21T07:02:20;6.45;;;4.88;;
37645;SDS011;23489;49.600;6.138;2024-02-21T07:04:46;14.93;;;5.03;;
37645;SDS011;23489;49.600;6.138;2024-02-21T07:07:12;12.32;;;5.65;;
37645;SDS011;23489;49.600;6.138;2024-02-21T07:09:38;15.18;;;5.43;;
37645;SDS011;23489;49.600;6.138;2024-02-21T07:12:04;10.15;;;5.28;;
37645;SDS011;23489;49.600;6.138;2024-02-21T07:14:30;12.60;;;5.32;;
37645;SDS011;23489;49.600;6.138;2024-02-21T07:16:57;14.75;;;5.38;;
37645;SDS011;23489;49.600;6.138;2024-02-21T07:19:23;13.23;;;5.30;;
37645;SDS011;23489;49.600;6.138;2024-02-21T07:21:48;14.30;;;5.28;;
37645;SDS011;23489;49.600;6.138;2024-02-21T07:24:14;11.93;;;5.05;;
37645;SDS011;23489;49.600;6.138;2024-02-21T07:26:43;10.15;;;4.75;;
37645;SDS011;23489;49.600;6.138;2024-02-21T07:29:09;14.75;;;4.93;;
37645;SDS011;23489;49.600;6.138;2024-02-21T07:31:41;11.95;;;4.85;;
37645;SDS011;23489;49.600;6.138;2024-02-21T07:34:08;14.00;;;5.18;;
37645;SDS011;23489;49.600;6.138;2024-02-21T07:36:34;8.20;;;4.75;;
37645;SDS011;23489;49.600;6.138;2024-02-21T07:39:00;11.95;;;4.70;;
37645;SDS011;23489;49.600;6.138;2024-02-21T07:41:26;10.88;;;4.50;;
37645;SDS011;23489;49.600;6.138;2024-02-21T07:43:53;17.73;;;5.45;;
37645;SDS011;23489;49.600;6.138;2024-02-21T07:46:19;14.48;;;4.47;;
37645;SDS011;23489;49.600;6.138;2024-02-21T07:48:45;11.85;;;4.75;;
37645;SDS011;23489;49.600;6.138;2024-02-21T07:51:11;11.63;;;4.97;;
37645;SDS011;23489;49.600;6.138;2024-02-21T07:53:38;8.48;;;4.07;;
37645;SDS011;23489;49.600;6.138;2024-02-21T07:56:04;17.15;;;4.93;;
37645;SDS011;23489;49.600;6.138;2024-02-21T07:58:30;17.02;;;4.85;;
37645;SDS011;23489;49.600;6.138;2024-02-21T08:00:55;10.88;;;4.13;;
37645;SDS011;23489;49.600;6.138;2024-02-21T08:03:21;13.20;;;4.95;;
37645;SDS011;23489;49.600;6.138;2024-02-21T08:05:47;14.63;;;4.90;;
37645;SDS011;23489;49.600;6.138;2024-02-21T08:08:13;14.90;;;4.72;;
37645;SDS011;23489;49.600;6.138;2024-02-21T08:10:45;13.93;;;4.72;;
37645;SDS011;23489;49.600;6.138;2024-02-21T08:13:11;9.90;;;4.40;;
37645;SDS011;23489;49.600;6.138;2024-02-21T08:15:36;8.27;;;4.32;;
37645;SDS011;23489;49.600;6.138;2024-02-21T08:18:04;15.60;;;5.22;;
37645;SDS011;23489;49.600;6.138;2024-02-21T08:20:30;11.20;;;4.72;;
37645;SDS011;23489;49.600;6.138;2024-02-21T08:22:56;9.38;;;4.47;;
37645;SDS011;23489;49.600;6.138;2024-02-21T08:25:22;13.77;;;5.43;;
37645;SDS011;23489;49.600;6.138;2024-02-21T08:27:47;12.80;;;5.13;;
37645;SDS011;23489;49.600;6.138;2024-02-21T08:30:13;11.80;;;4.38;;
37645;SDS011;23489;49.600;6.138;2024-02-21T08:32:39;12.02;;;5.15;;
37645;SDS011;23489;49.600;6.138;2024-02-21T08:35:05;15.68;;;4.55;;
37645;SDS011;23489;49.600;6.138;2024-02-21T08:37:31;11.80;;;4.65;;
37645;SDS011;23489;49.600;6.138;2024-02-21T08:39:57;14.05;;;4.93;;
37645;SDS011;23489;49.600;6.138;2024-02-21T08:42:22;14.00;;;5.38;;
37645;SDS011;23489;49.600;6.138;2024-02-21T08:44:48;8.23;;;4.95;;
37645;SDS011;23489;49.600;6.138;2024-02-21T08:47:14;13.98;;;5.63;;
37645;SDS011;23489;49.600;6.138;2024-02-21T08:49:39;13.87;;;6.23;;
37645;SDS011;23489;49.600;6.138;2024-02-21T08:52:05;12.30;;;5.57;;
37645;SDS011;23489;49.600;6.138;2024-02-21T08:54:31;13.80;;;6.03;;
37645;SDS011;23489;49.600;6.138;2024-02-21T08:57:00;13.63;;;5.70;;
37645;SDS011;23489;49.600;6.138;2024-02-21T08:59:26;13.77;;;5.70;;
37645;SDS011;23489;49.600;6.138;2024-02-21T09:01:52;14.02;;;6.05;;
37645;SDS011;23489;49.600;6.138;2024-02-21T09:04:18;11.85;;;7.15;;
37645;SDS011;23489;49.600;6.138;2024-02-21T09:06:44;23.83;;;14.32;;
37645;SDS011;23489;49.600;6.138;2024-02-21T09:09:11;17.67;;;10.93;;
37645;SDS011;23489;49.600;6.138;2024-02-21T09:11:37;10.57;;;6.00;;
37645;SDS011;23489;49.600;6.138;2024-02-21T09:14:03;11.43;;;5.70;;
37645;SDS011;23489;49.600;6.138;2024-02-21T09:16:32;16.93;;;5.93;;
37645;SDS011;23489;49.600;6.138;2024-02-21T09:18:58;14.00;;;5.72;;
37645;SDS011;23489;49.600;6.138;2024-02-21T09:21:24;10.27;;;5.30;;
37645;SDS011;23489;49.600;6.138;2024-02-21T09:23:49;12.60;;;6.03;;
37645;SDS011;23489;49.600;6.138;2024-02-21T09:26:15;13.03;;;5.37;;
37645;SDS011;23489;49.600;6.138;2024-02-21T09:28:45;14.20;;;5.18;;
37645;SDS011;23489;49.600;6.138;2024-02-21T09:31:10;13.77;;;5.83;;
37645;SDS011;23489;49.600;6.138;2024-02-21T09:33:36;13.00;;;4.80;;
37645;SDS011;23489;49.600;6.138;2024-02-21T09:36:02;11.98;;;5.03;;
37645;SDS011;23489;49.600;6.138;2024-02-21T09:38:31;13.68;;;5.03;;
37645;SDS011;23489;49.600;6.138;2024-02-21T09:41:04;11.07;;;4.70;;
37645;SDS011;23489;49.600;6.138;2024-02-21T09:43:44;14.77;;;5.57;;
37645;SDS011;23489;49.600;6.138;2024-02-21T09:46:17;14.98;;;4.75;;
37645;SDS011;23489;49.600;6.138;2024-02-21T09:51:49;9.10;;;4.82;;
37645;SDS011;23489;49.600;6.138;2024-02-21T09:54:16;11.18;;;5.05;;
37645;SDS011;23489;49.600;6.138;2024-02-21T09:56:46;13.05;;;5.72;;
37645;SDS011;23489;49.600;6.138;2024-02-21T09:59:15;12.02;;;6.07;;
37645;SDS011;23489;49.600;6.138;2024-02-21T10:01:44;10.90;;;5.32;;
37645;SDS011;23489;49.600;6.138;2024-02-21T10:04:12;8.20;;;5.28;;
37645;SDS011;23489;49.600;6.138;2024-02-21T10:33:58;8.95;;;4.00;;
37645;SDS011;23489;49.600;6.138;2024-02-21T10:36:28;10.30;;;4.20;;
37645;SDS011;23489;49.600;6.138;2024-02-21T10:38:54;10.67;;;4.13;;
37645;SDS011;23489;49.600;6.138;2024-02-21T10:41:21;12.33;;;4.40;;
37645;SDS011;23489;49.600;6.138;2024-02-21T10:43:51;10.45;;;3.80;;
37645;SDS011;23489;49.600;6.138;2024-02-21T10:46:22;24.42;;;4.68;;
37645;SDS011;23489;49.600;6.138;2024-02-21T10:49:02;13.82;;;3.38;;
37645;SDS011;23489;49.600;6.138;2024-02-21T10:59:06;10.02;;;3.55;;
37645;SDS011;23489;49.600;6.138;2024-02-21T11:01:33;8.02;;;3.45;;
37645;SDS011;23489;49.600;6.138;2024-02-21T11:11:40;9.18;;;2.95;;
37645;SDS011;23489;49.600;6.138;2024-02-21T11:14:08;8.40;;;3.13;;
37645;SDS011;23489;49.600;6.138;2024-02-21T11:16:44;9.80;;;3.60;;
37645;SDS011;23489;49.600;6.138;2024-02-21T11:21:52;10.00;;;3.40;;
37645;SDS011;23489;49.600;6.138;2024-02-21T11:27:14;8.48;;;3.72;;
37645;SDS011;23489;49.600;6.138;2024-02-21T11:32:10;8.30;;;3.75;;
37645;SDS011;23489;49.600;6.138;2024-02-21T11:34:40;6.35;;;3.22;;
37645;SDS011;23489;49.600;6.138;2024-02-21T11:37:13;9.23;;;3.40;;
37645;SDS011;23489;49.600;6.138;2024-02-21T11:42:08;8.73;;;2.83;;
37645;SDS011;23489;49.600;6.138;2024-02-21T11:44:35;9.98;;;3.72;;
37645;SDS011;23489;49.600;6.138;2024-02-21T11:47:06;12.85;;;3.22;;
37645;SDS011;23489;49.600;6.138;2024-02-21T11:49:36;11.45;;;3.35;;
37645;SDS011;23489;49.600;6.138;2024-02-21T11:52:08;8.52;;;3.10;;
37645;SDS011;23489;49.600;6.138;2024-02-21T11:54:34;9.38;;;3.20;;
37645;SDS011;23489;49.600;6.138;2024-02-21T12:01:55;9.05;;;3.40;;
37645;SDS011;23489;49.600;6.138;2024-02-21T12:04:22;8.00;;;3.15;;
37645;SDS011;23489;49.600;6.138;2024-02-21T12:06:49;11.25;;;3.08;;
37645;SDS011;23489;49.600;6.138;2024-02-21T12:16:35;6.55;;;2.78;;
37645;SDS011;23489;49.600;6.138;2024-02-21T12:19:04;10.23;;;3.17;;
37645;SDS011;23489;49.600;6.138;2024-02-21T12:21:30;7.18;;;3.75;;
37645;SDS011;23489;49.600;6.138;2024-02-21T12:23:58;9.88;;;3.83;;
37645;SDS011;23489;49.600;6.138;2024-02-21T12:26:24;12.73;;;3.05;;
37645;SDS011;23489;49.600;6.138;2024-02-21T12:28:50;8.68;;;3.33;;
37645;SDS011;23489;49.600;6.138;2024-02-21T12:31:16;7.53;;;2.90;;
37645;SDS011;23489;49.600;6.138;2024-02-21T12:33:42;13.05;;;3.45;;
37645;SDS011;23489;49.600;6.138;2024-02-21T12:36:08;12.30;;;3.47;;
37645;SDS011;23489;49.600;6.138;2024-02-21T12:38:34;8.55;;;3.05;;
37645;SDS011;23489;49.600;6.138;2024-02-21T12:41:01;13.38;;;2.97;;
37645;SDS011;23489;49.600;6.138;2024-02-21T12:43:27;8.10;;;2.80;;
37645;SDS011;23489;49.600;6.138;2024-02-21T12:45:53;10.02;;;3.05;;
37645;SDS011;23489;49.600;6.138;2024-02-21T12:48:18;7.95;;;2.72;;
37645;SDS011;23489;49.600;6.138;2024-02-21T12:50:48;7.35;;;2.50;;
37645;SDS011;23489;49.600;6.138;2024-02-21T12:53:15;10.52;;;2.70;;
37645;SDS011;23489;49.600;6.138;2024-02-21T12:55:42;12.52;;;2.72;;
37645;SDS011;23489;49.600;6.138;2024-02-21T12:58:08;6.28;;;3.10;;
37645;SDS011;23489;49.600;6.138;2024-02-21T13:00:34;6.40;;;3.45;;
37645;SDS011;23489;49.600;6.138;2024-02-21T13:03:00;10.00;;;2.65;;
37645;SDS011;23489;49.600;6.138;2024-02-21T13:05:26;8.82;;;2.95;;
37645;SDS011;23489;49.600;6.138;2024-02-21T13:07:52;8.50;;;2.90;;
37645;SDS011;23489;49.600;6.138;2024-02-21T13:10:19;9.55;;;3.00;;
37645;SDS011;23489;49.600;6.138;2024-02-21T13:12:45;11.48;;;3.05;;
37645;SDS011;23489;49.600;6.138;2024-02-21T13:15:10;6.82;;;3.05;;
37645;SDS011;23489;49.600;6.138;2024-02-21T13:17:37;10.23;;;3.40;;
37645;SDS011;23489;49.600;6.138;2024-02-21T13:20:03;8.90;;;2.65;;
37645;SDS011;23489;49.600;6.138;2024-02-21T13:22:29;6.85;;;2.80;;
37645;SDS011;23489;49.600;6.138;2024-02-21T13:24:55;5.40;;;2.38;;
37645;SDS011;23489;49.600;6.138;2024-02-21T13:27:20;9.35;;;2.92;;
37645;SDS011;23489;49.600;6.138;2024-02-21T13:29:46;6.55;;;2.72;;
37645;SDS011;23489;49.600;6.138;2024-02-21T13:32:12;7.65;;;2.72;;
37645;SDS011;23489;49.600;6.138;2024-02-21T13:34:37;11.40;;;3.00;;
37645;SDS011;23489;49.600;6.138;2024-02-21T13:37:03;7.13;;;2.20;;
37645;SDS011;23489;49.600;6.138;2024-02-21T13:39:29;10.40;;;2.72;;
37645;SDS011;23489;49.600;6.138;2024-02-21T13:41:55;7.05;;;2.90;;
37645;SDS011;23489;49.600;6.138;2024-02-21T13:44:21;6.78;;;3.00;;
37645;SDS011;23489;49.600;6.138;2024-02-21T13:46:46;5.65;;;2.85;;
37645;SDS011;23489;49.600;6.138;2024-02-21T13:49:12;7.47;;;2.70;;
37645;SDS011;23489;49.600;6.138;2024-02-21T13:51:38;6.95;;;2.58;;
37645;SDS011;23489;49.600;6.138;2024-02-21T13:54:06;10.43;;;3.10;;
37645;SDS011;23489;49.600;6.138;2024-02-21T13:56:34;10.68;;;2.67;;
37645;SDS011;23489;49.600;6.138;2024-02-21T13:59:00;9.30;;;3.65;;
37645;SDS011;23489;49.600;6.138;2024-02-21T14:01:26;9.40;;;2.90;;
37645;SDS011;23489;49.600;6.138;2024-02-21T14:03:53;8.73;;;2.97;;
37645;SDS011;23489;49.600;6.138;2024-02-21T14:06:19;8.50;;;2.97;;
37645;SDS011;23489;49.600;6.138;2024-02-21T14:08:45;12.75;;;3.30;;
37645;SDS011;23489;49.600;6.138;2024-02-21T14:11:10;7.13;;;2.83;;
37645;SDS011;23489;49.600;6.138;2024-02-21T14:13:36;10.68;;;3.75;;
37645;SDS011;23489;49.600;6.138;2024-02-21T14:16:02;8.77;;;2.95;;
37645;SDS011;23489;49.600;6.138;2024-02-21T14:18:28;5.70;;;2.83;;
37645;SDS011;23489;49.600;6.138;2024-02-21T14:20:54;7.18;;;2.95;;
37645;SDS011;23489;49.600;6.138;2024-02-21T14:23:20;8.73;;;2.97;;
37645;SDS011;23489;49.600;6.138;2024-02-21T14:25:46;11.38;;;3.00;;
37645;SDS011;23489;49.600;6.138;2024-02-21T14:28:12;8.00;;;2.70;;
37645;SDS011;23489;49.600;6.138;2024-02-21T14:30:37;7.47;;;2.95;;
37645;SDS011;23489;49.600;6.138;2024-02-21T14:33:03;8.93;;;2.67;;
37645;SDS011;23489;49.600;6.138;2024-02-21T14:35:29;7.63;;;2.25;;
37645;SDS011;23489;49.600;6.138;2024-02-21T14:37:54;7.13;;;2.80;;
37645;SDS011;23489;49.600;6.138;2024-02-21T14:40:23;6.25;;;2.30;;
37645;SDS011;23489;49.600;6.138;2024-02-21T14:42:49;4.63;;;2.47;;
37645;SDS011;23489;49.600;6.138;2024-02-21T14:45:14;8.55;;;2.75;;
37645;SDS011;23489;49.600;6.138;2024-02-21T14:47:40;11.10;;;3.35;;
37645;SDS011;23489;49.600;6.138;2024-02-21T14:50:06;7.97;;;2.40;;
37645;SDS011;23489;49.600;6.138;2024-02-21T14:52:32;5.55;;;2.33;;
37645;SDS011;23489;49.600;6.138;2024-02-21T14:54:58;5.85;;;2.40;;
37645;SDS011;23489;49.600;6.138;2024-02-21T14:57:24;7.50;;;2.28;;
37645;SDS011;23489;49.600;6.138;2024-02-21T14:59:50;7.10;;;3.03;;
37645;SDS011;23489;49.600;6.138;2024-02-21T15:02:21;6.50;;;2.88;;
37645;SDS011;23489;49.600;6.138;2024-02-21T15:04:48;7.82;;;3.08;;
37645;SDS011;23489;49.600;6.138;2024-02-21T15:07:14;8.57;;;2.80;;
37645;SDS011;23489;49.600;6.138;2024-02-21T15:09:39;7.50;;;2.78;;
37645;SDS011;23489;49.600;6.138;2024-02-21T15:12:05;7.03;;;2.35;;
37645;SDS011;23489;49.600;6.138;2024-02-21T15:14:31;4.30;;;2.90;;
37645;SDS011;23489;49.600;6.138;2024-02-21T15:16:57;4.40;;;2.13;;
37645;SDS011;23489;49.600;6.138;2024-02-21T15:19:23;7.70;;;2.50;;
37645;SDS011;23489;49.600;6.138;2024-02-21T15:21:49;6.00;;;3.13;;
37645;SDS011;23489;49.600;6.138;2024-02-21T15:24:14;8.20;;;3.03;;
37645;SDS011;23489;49.600;6.138;2024-02-21T15:26:42;7.43;;;2.60;;
37645;SDS011;23489;49.600;6.138;2024-02-21T15:29:07;9.68;;;3.10;;
37645;SDS011;23489;49.600;6.138;2024-02-21T15:31:34;8.20;;;3.13;;
37645;SDS011;23489;49.600;6.138;2024-02-21T15:34:00;11.00;;;2.90;;
37645;SDS011;23489;49.600;6.138;2024-02-21T15:36:25;7.63;;;2.92;;
37645;SDS011;23489;49.600;6.138;2024-02-21T15:38:53;11.60;;;3.28;;
37645;SDS011;23489;49.600;6.138;2024-02-21T15:41:19;8.00;;;3.33;;
37645;SDS011;23489;49.600;6.138;2024-02-21T15:43:46;5.70;;;3.30;;
37645;SDS011;23489;49.600;6.138;2024-02-21T15:46:12;6.78;;;3.30;;
37645;SDS011;23489;49.600;6.138;2024-02-21T15:48:38;5.93;;;3.38;;
37645;SDS011;23489;49.600;6.138;2024-02-21T15:51:05;6.07;;;3.00;;
37645;SDS011;23489;49.600;6.138;2024-02-21T15:53:31;7.80;;;3.53;;
37645;SDS011;23489;49.600;6.138;2024-02-21T15:55:57;11.27;;;3.63;;
37645;SDS011;23489;49.600;6.138;2024-02-21T15:58:22;8.68;;;3.60;;
37645;SDS011;23489;49.600;6.138;2024-02-21T16:00:49;9.80;;;3.45;;
37645;SDS011;23489;49.600;6.138;2024-02-21T16:03:15;8.35;;;3.20;;
37645;SDS011;23489;49.600;6.138;2024-02-21T16:05:41;8.40;;;3.92;;
37645;SDS011;23489;49.600;6.138;2024-02-21T16:08:07;11.68;;;4.05;;
37645;SDS011;23489;49.600;6.138;2024-02-21T16:10:33;8.95;;;3.55;;
37645;SDS011;23489;49.600;6.138;2024-02-21T16:12:59;6.47;;;3.42;;
37645;SDS011;23489;49.600;6.138;2024-02-21T16:15:24;7.80;;;3.30;;
37645;SDS011;23489;49.600;6.138;2024-02-21T16:17:50;8.45;;;3.80;;
37645;SDS011;23489;49.600;6.138;2024-02-21T16:20:16;7.85;;;3.60;;
37645;SDS011;23489;49.600;6.138;2024-02-21T16:22:42;9.48;;;3.90;;
37645;SDS011;23489;49.600;6.138;2024-02-21T16:25:08;8.30;;;3.47;;
37645;SDS011;23489;49.600;6.138;2024-02-21T16:27:34;9.82;;;3.95;;
37645;SDS011;23489;49.600;6.138;2024-02-21T16:30:00;9.65;;;3.33;;
37645;SDS011;23489;49.600;6.138;2024-02-21T16:32:26;7.70;;;3.47;;
37645;SDS011;23489;49.600;6.138;2024-02-21T16:34:53;8.63;;;3.42;;
37645;SDS011;23489;49.600;6.138;2024-02-21T16:37:18;16.17;;;7.55;;
37645;SDS011;23489;49.600;6.138;2024-02-21T16:39:44;15.32;;;5.68;;
37645;SDS011;23489;49.600;6.138;2024-02-21T16:42:10;11.98;;;4.68;;
37645;SDS011;23489;49.600;6.138;2024-02-21T16:44:36;6.90;;;3.70;;
37645;SDS011;23489;49.600;6.138;2024-02-21T16:47:03;9.35;;;3.70;;
37645;SDS011;23489;49.600;6.138;2024-02-21T16:49:29;8.88;;;4.30;;
37645;SDS011;23489;49.600;6.138;2024-02-21T16:51:55;7.53;;;3.78;;
37645;SDS011;23489;49.600;6.138;2024-02-21T16:54:21;6.50;;;3.80;;
37645;SDS011;23489;49.600;6.138;2024-02-21T16:56:48;9.63;;;3.47;;
37645;SDS011;23489;49.600;6.138;2024-02-21T16:59:14;6.22;;;3.75;;
37645;SDS011;23489;49.600;6.138;2024-02-21T17:01:40;8.80;;;4.18;;
37645;SDS011;23489;49.600;6.138;2024-02-21T17:04:06;7.03;;;3.80;;
37645;SDS011;23489;49.600;6.138;2024-02-21T17:06:32;9.48;;;3.83;;
37645;SDS011;23489;49.600;6.138;2024-02-21T17:08:58;8.60;;;3.88;;
37645;SDS011;23489;49.600;6.138;2024-02-21T17:11:26;7.28;;;4.10;;
37645;SDS011;23489;49.600;6.138;2024-02-21T17:13:52;8.23;;;3.92;;
37645;SDS011;23489;49.600;6.138;2024-02-21T17:16:18;8.52;;;3.35;;
37645;SDS011;23489;49.600;6.138;2024-02-21T17:18:43;7.38;;;3.53;;
37645;SDS011;23489;49.600;6.138;2024-02-21T17:21:10;9.73;;;3.58;;
37645;SDS011;23489;49.600;6.138;2024-02-21T17:23:37;8.40;;;4.50;;
37645;SDS011;23489;49.600;6.138;2024-02-21T17:26:03;7.25;;;4.15;;